createdAt,value
2022-11-01T00:01:31.606Z,11.20
2022-11-01T00:03:58.272Z,11.20
2022-11-01T00:06:25.174Z,11.20
2022-11-01T00:08:51.809Z,11.10
2022-11-01T00:11:19.346Z,11.10
2022-11-01T00:13:48.017Z,11.10
2022-11-01T00:16:15.922Z,11.10
2022-11-01T00:18:42.858Z,11.10
2022-11-01T00:21:10.571Z,11.10
2022-11-01T00:23:37.784Z,11.00
2022-11-01T00:26:04.677Z,11.10
2022-11-01T00:28:32.198Z,11.10
2022-11-01T00:30:59.273Z,11.10
2022-11-01T00:33:26.676Z,11.10
2022-11-01T00:35:53.338Z,11.10
2022-11-01T00:38:19.962Z,11.10
2022-11-01T00:40:47.023Z,11.10
2022-11-01T00:43:13.967Z,11.10
2022-11-01T00:45:43.736Z,11.10
2022-11-01T00:48:10.606Z,11.10
2022-11-01T00:50:37.279Z,11.10
2022-11-01T00:53:04.129Z,11.10
2022-11-01T00:55:30.688Z,11.10
2022-11-01T00:57:57.345Z,11.10
2022-11-01T01:00:24.309Z,11.10
2022-11-01T01:02:50.976Z,11.20
2022-11-01T01:05:17.869Z,11.20
2022-11-01T01:07:44.453Z,11.20
2022-11-01T01:10:11.095Z,11.20
2022-11-01T01:12:37.980Z,11.20
2022-11-01T01:15:05.419Z,11.10
2022-11-01T01:17:33.775Z,11.20
2022-11-01T01:20:00.609Z,11.20
2022-11-01T01:22:28.493Z,11.20
2022-11-01T01:24:55.098Z,11.10
2022-11-01T01:27:21.997Z,11.10
2022-11-01T01:29:48.657Z,11.10
2022-11-01T01:32:17.345Z,11.10
2022-11-01T01:34:44.124Z,11.10
2022-11-01T01:37:11.564Z,11.10
2022-11-01T01:39:38.345Z,11.10
2022-11-01T01:42:17.589Z,11.20
2022-11-01T01:44:47.436Z,11.10
2022-11-01T01:47:32.781Z,11.20
2022-11-01T01:50:11.845Z,11.20
2022-11-01T01:52:55.439Z,11.20
2022-11-01T01:55:26.994Z,11.20
2022-11-01T01:57:56.443Z,11.20
2022-11-01T02:00:23.019Z,11.10
2022-11-01T02:02:50.897Z,11.10
2022-11-01T02:05:44.107Z,11.20
2022-11-01T02:08:12.380Z,11.20
2022-11-01T02:10:40.180Z,11.30
2022-11-01T02:13:14.667Z,11.40
2022-11-01T02:16:18.952Z,11.60
2022-11-01T02:18:52.950Z,11.90
2022-11-01T02:21:35.909Z,12.00
2022-11-01T02:24:23.453Z,12.20
2022-11-01T02:27:02.292Z,12.40
2022-11-01T02:29:58.077Z,12.40
2022-11-01T02:32:43.290Z,12.50
2022-11-01T02:35:35.221Z,12.60
2022-11-01T02:38:28.211Z,12.60
2022-11-01T02:41:08.569Z,12.60
2022-11-01T02:43:46.834Z,12.70
2022-11-01T02:46:34.429Z,12.70
2022-11-01T02:49:01.790Z,12.70
2022-11-01T02:51:29.527Z,12.70
2022-11-01T02:53:56.104Z,12.70
2022-11-01T02:56:22.901Z,12.80
2022-11-01T02:58:52.600Z,12.80
2022-11-01T03:01:24.660Z,12.70
2022-11-01T03:03:53.343Z,12.70
2022-11-01T03:06:28.558Z,12.70
2022-11-01T03:09:00.021Z,12.70
2022-11-01T03:11:32.756Z,12.60
2022-11-01T03:14:18.081Z,12.60
2022-11-01T03:16:58.713Z,12.60
2022-11-01T03:19:56.521Z,12.60
2022-11-01T03:22:30.976Z,12.50
2022-11-01T03:25:34.505Z,12.40
2022-11-01T03:28:09.413Z,12.40
2022-11-01T03:30:37.241Z,12.30
2022-11-01T03:33:04.819Z,12.30
2022-11-01T03:35:36.827Z,12.20
2022-11-01T03:38:13.094Z,12.20
2022-11-01T03:40:49.269Z,12.20
2022-11-01T03:43:18.421Z,12.20
2022-11-01T03:45:46.884Z,12.30
2022-11-01T03:48:13.497Z,12.40
2022-11-01T03:50:46.363Z,12.40
2022-11-01T03:53:12.959Z,12.50
2022-11-01T03:55:39.556Z,12.60
2022-11-01T03:58:07.475Z,12.70
2022-11-01T04:00:38.317Z,12.70
2022-11-01T04:03:05.382Z,12.70
2022-11-01T04:05:33.796Z,12.70
2022-11-01T04:08:00.345Z,12.70
2022-11-01T04:10:29.028Z,12.70
2022-11-01T04:12:56.670Z,12.70
2022-11-01T04:15:43.164Z,12.80
2022-11-01T04:18:42.430Z,12.70
2022-11-01T04:21:16.945Z,12.80
2022-11-01T04:23:45.142Z,12.80
2022-11-01T04:26:16.801Z,12.90
2022-11-01T04:28:56.711Z,12.90
2022-11-01T04:31:25.864Z,13.00
2022-11-01T04:33:52.731Z,13.00
2022-11-01T04:36:19.388Z,13.00
2022-11-01T04:38:52.320Z,13.00
2022-11-01T04:41:19.846Z,13.00
2022-11-01T04:43:49.658Z,13.00
2022-11-01T04:46:16.689Z,13.00
2022-11-01T04:48:43.290Z,13.00
2022-11-01T04:51:10.278Z,13.00
2022-11-01T04:53:37.102Z,13.00
2022-11-01T04:56:05.512Z,13.00
2022-11-01T04:58:34.339Z,13.00
2022-11-01T05:01:07.716Z,13.00
2022-11-01T05:03:35.208Z,13.00
2022-11-01T05:06:01.828Z,13.00
2022-11-01T05:08:28.621Z,13.10
2022-11-01T05:10:56.118Z,13.10
2022-11-01T05:13:23.024Z,13.10
2022-11-01T05:16:06.710Z,13.10
2022-11-01T05:18:36.190Z,13.10
2022-11-01T05:21:02.805Z,13.00
2022-11-01T05:23:29.382Z,13.00
2022-11-01T05:25:57.174Z,13.00
2022-11-01T05:28:23.910Z,13.00
2022-11-01T05:30:50.503Z,12.90
2022-11-01T05:33:17.078Z,13.00
2022-11-01T05:35:43.664Z,13.00
2022-11-01T05:38:10.506Z,13.00
2022-11-01T05:40:37.105Z,13.00
2022-11-01T05:43:04.290Z,13.10
2022-11-01T05:45:31.301Z,13.10
2022-11-01T05:48:03.137Z,13.10
2022-11-01T05:50:29.928Z,13.10
2022-11-01T05:53:05.026Z,13.10
2022-11-01T05:55:31.684Z,13.20
2022-11-01T05:57:58.728Z,13.20
2022-11-01T06:00:25.305Z,13.30
2022-11-01T06:02:52.011Z,13.30
2022-11-01T06:05:18.648Z,13.30
2022-11-01T06:07:45.263Z,13.30
2022-11-01T06:10:11.808Z,13.30
2022-11-01T06:12:38.428Z,13.30
2022-11-01T06:15:05.528Z,13.30
2022-11-01T06:17:32.120Z,13.30
2022-11-01T06:19:58.756Z,13.30
2022-11-01T06:22:25.462Z,13.40
2022-11-01T06:24:52.330Z,13.40
2022-11-01T06:27:19.023Z,13.40
2022-11-01T06:29:45.631Z,13.50
2022-11-01T06:32:12.247Z,13.50
2022-11-01T06:34:42.318Z,13.60
2022-11-01T06:37:11.498Z,13.70
2022-11-01T06:39:38.234Z,13.80
2022-11-01T06:42:05.087Z,13.80
2022-11-01T06:44:31.927Z,13.90
2022-11-01T06:46:58.534Z,13.90
2022-11-01T06:49:25.325Z,13.90
2022-11-01T06:51:51.958Z,13.90
2022-11-01T06:54:18.740Z,14.00
2022-11-01T06:56:47.834Z,14.00
2022-11-01T06:59:16.448Z,14.00
2022-11-01T07:01:43.997Z,14.00
2022-11-01T07:06:38.556Z,14.00
2022-11-01T07:09:05.638Z,14.10
2022-11-01T07:11:33.383Z,14.10
2022-11-01T07:14:00.049Z,14.10
2022-11-01T07:16:27.040Z,14.20
2022-11-01T07:18:53.756Z,14.20
2022-11-01T07:21:20.686Z,14.20
2022-11-01T07:23:49.936Z,14.20
2022-11-01T07:26:16.930Z,14.20
2022-11-01T07:28:43.549Z,14.20
2022-11-01T07:31:10.122Z,14.20
2022-11-01T07:33:36.767Z,14.20
2022-11-01T07:36:04.518Z,14.20
2022-11-01T07:38:31.496Z,14.20
2022-11-01T07:40:58.335Z,14.30
2022-11-01T07:43:24.947Z,14.30
2022-11-01T07:45:51.734Z,14.30
2022-11-01T07:48:19.170Z,14.30
2022-11-01T07:50:46.343Z,14.40
2022-11-01T07:53:19.293Z,14.40
2022-11-01T07:55:46.424Z,14.40
2022-11-01T07:58:14.545Z,14.40
2022-11-01T08:00:42.297Z,14.50
2022-11-01T08:03:14.574Z,14.50
2022-11-01T08:05:41.599Z,14.50
2022-11-01T08:08:09.086Z,14.50
2022-11-01T08:10:36.820Z,14.60
2022-11-01T08:13:07.406Z,14.60
2022-11-01T08:15:34.354Z,14.60
2022-11-01T08:18:01.787Z,14.70
2022-11-01T08:20:28.735Z,14.70
2022-11-01T08:22:55.735Z,14.70
2022-11-01T08:25:22.581Z,14.80
2022-11-01T08:27:49.516Z,14.80
2022-11-01T08:30:17.695Z,14.80
2022-11-01T08:32:45.149Z,14.80
2022-11-01T08:35:12.472Z,14.80
2022-11-01T08:37:50.858Z,14.90
2022-11-01T08:40:18.271Z,14.90
2022-11-01T08:42:45.333Z,14.90
2022-11-01T08:45:12.298Z,14.90
2022-11-01T08:47:39.991Z,15.00
2022-11-01T08:50:11.333Z,15.00
2022-11-01T08:52:38.424Z,15.10
2022-11-01T08:55:05.920Z,15.10
2022-11-01T08:57:32.664Z,15.10
2022-11-01T08:59:59.457Z,15.10
2022-11-01T09:02:26.482Z,15.10
2022-11-01T09:04:53.241Z,15.20
2022-11-01T09:07:20.790Z,15.20
2022-11-01T09:09:47.400Z,15.30
2022-11-01T09:12:14.885Z,15.40
2022-11-01T09:14:41.816Z,15.50
2022-11-01T09:17:08.778Z,15.50
2022-11-01T09:19:35.499Z,15.50
2022-11-01T09:22:02.128Z,15.60
2022-11-01T09:24:28.748Z,15.60
2022-11-01T09:26:55.302Z,15.70
2022-11-01T09:29:21.992Z,15.70
2022-11-01T09:31:53.148Z,15.80
2022-11-01T09:34:21.048Z,15.90
2022-11-01T09:36:48.824Z,15.90
2022-11-01T09:39:17.703Z,16.00
2022-11-01T09:41:48.945Z,16.00
2022-11-01T09:44:25.387Z,16.00
2022-11-01T09:46:59.678Z,16.00
2022-11-01T09:49:33.786Z,16.00
2022-11-01T09:52:00.850Z,16.00
2022-11-01T09:54:28.365Z,15.90
2022-11-01T09:57:06.930Z,15.90
2022-11-01T09:59:51.084Z,15.90
2022-11-01T10:02:30.462Z,16.00
2022-11-01T10:05:34.492Z,16.00
2022-11-01T10:08:37.154Z,16.10
2022-11-01T10:11:25.705Z,16.20
2022-11-01T10:14:18.888Z,16.40
2022-11-01T10:17:04.611Z,16.70
2022-11-01T10:19:35.273Z,17.00
2022-11-01T10:22:12.480Z,17.20
2022-11-01T10:24:41.501Z,17.50
2022-11-01T10:27:22.044Z,17.70
2022-11-01T10:30:15.529Z,17.80
2022-11-01T10:32:47.089Z,17.90
2022-11-01T10:35:19.130Z,17.90
2022-11-01T10:38:04.044Z,18.00
2022-11-01T10:40:41.334Z,18.10
2022-11-01T10:43:15.200Z,18.20
2022-11-01T10:45:47.555Z,18.30
2022-11-01T10:48:33.488Z,18.30
2022-11-01T10:51:03.695Z,18.20
2022-11-01T10:53:35.517Z,18.00
2022-11-01T10:56:08.907Z,18.10
2022-11-01T10:58:42.535Z,18.20
2022-11-01T11:01:15.805Z,18.30
2022-11-01T11:03:45.302Z,18.30
2022-11-01T11:06:13.950Z,18.40
2022-11-01T11:08:44.592Z,18.40
2022-11-01T11:11:15.347Z,18.50
2022-11-01T11:13:52.768Z,18.40
2022-11-01T11:16:37.766Z,18.40
2022-11-01T11:19:33.248Z,18.50
2022-11-01T11:22:01.208Z,18.70
2022-11-01T11:24:43.482Z,18.50
2022-11-01T11:27:23.738Z,18.40
2022-11-01T11:29:54.289Z,18.50
2022-11-01T11:32:24.156Z,18.30
2022-11-01T11:35:03.934Z,18.40
2022-11-01T11:37:34.149Z,18.50
2022-11-01T11:40:06.895Z,18.60
2022-11-01T11:42:33.490Z,18.70
2022-11-01T11:45:17.869Z,18.70
2022-11-01T11:47:46.821Z,18.60
2022-11-01T11:50:19.564Z,18.70
2022-11-01T11:53:00.875Z,18.70
2022-11-01T11:55:45.065Z,18.90
2022-11-01T11:58:40.904Z,19.10
2022-11-01T12:01:15.752Z,19.10
2022-11-01T12:03:48.266Z,19.20
2022-11-01T12:06:23.501Z,19.20
2022-11-01T12:08:53.308Z,19.20
2022-11-01T12:11:21.644Z,19.30
2022-11-01T12:14:02.993Z,19.40
2022-11-01T12:16:38.980Z,19.30
2022-11-01T12:19:06.312Z,19.30
2022-11-01T12:21:40.117Z,19.40
2022-11-01T12:24:23.295Z,19.40
2022-11-01T12:26:53.473Z,19.30
2022-11-01T12:29:35.922Z,19.30
2022-11-01T12:32:16.687Z,19.20
2022-11-01T12:34:46.871Z,19.20
2022-11-01T12:37:23.163Z,19.10
2022-11-01T12:40:16.388Z,19.10
2022-11-01T12:43:01.088Z,19.10
2022-11-01T12:45:33.782Z,19.30
2022-11-01T12:48:07.673Z,19.20
2022-11-01T12:51:00.127Z,19.20
2022-11-01T12:53:33.703Z,19.20
2022-11-01T12:56:00.348Z,19.20
2022-11-01T12:58:30.845Z,19.20
2022-11-01T13:01:15.338Z,19.10
2022-11-01T13:04:05.752Z,19.10
2022-11-01T13:06:47.120Z,19.10
2022-11-01T13:09:45.445Z,19.10
2022-11-01T13:12:32.273Z,19.10
2022-11-01T13:15:28.244Z,19.10
2022-11-01T13:18:12.156Z,19.20
2022-11-01T13:20:53.625Z,19.20
2022-11-01T13:23:20.264Z,19.20
2022-11-01T13:26:07.473Z,19.20
2022-11-01T13:28:43.434Z,19.30
2022-11-01T13:31:19.649Z,19.10
2022-11-01T13:34:12.610Z,19.00
2022-11-01T13:36:45.165Z,19.10
2022-11-01T13:39:33.182Z,19.00
2022-11-01T13:42:07.426Z,19.10
2022-11-01T13:44:40.469Z,19.00
2022-11-01T13:47:14.770Z,18.90
2022-11-01T13:49:54.242Z,18.90
2022-11-01T13:52:29.035Z,18.80
2022-11-01T13:55:19.670Z,18.80
2022-11-01T13:57:46.502Z,18.70
2022-11-01T14:00:34.984Z,18.60
2022-11-01T14:03:21.150Z,18.70
2022-11-01T14:06:07.703Z,18.60
2022-11-01T14:08:42.288Z,18.50
2022-11-01T14:11:14.175Z,18.40
2022-11-01T14:13:46.952Z,18.40
2022-11-01T14:16:16.694Z,18.30
2022-11-01T14:19:02.787Z,18.30
2022-11-01T14:21:44.537Z,18.10
2022-11-01T14:24:23.474Z,18.10
2022-11-01T14:27:00.618Z,18.10
2022-11-01T14:29:28.032Z,18.00
2022-11-01T14:31:55.767Z,17.90
2022-11-01T14:34:35.618Z,17.80
2022-11-01T14:37:15.335Z,17.70
2022-11-01T14:39:58.222Z,17.60
2022-11-01T14:42:35.132Z,17.40
2022-11-01T14:45:32.529Z,17.30
2022-11-01T14:48:17.237Z,17.30
2022-11-01T14:50:53.679Z,17.10
2022-11-01T14:53:31.541Z,17.00
2022-11-01T14:56:07.015Z,16.90
2022-11-01T14:58:33.678Z,16.80
2022-11-01T15:01:06.502Z,16.70
2022-11-01T15:03:33.330Z,16.60
2022-11-01T15:06:00.032Z,16.60
2022-11-01T15:08:37.849Z,16.50
2022-11-01T15:11:05.317Z,16.40
2022-11-01T15:13:36.711Z,16.30
2022-11-01T15:16:12.376Z,16.30
2022-11-01T15:18:51.789Z,16.20
2022-11-01T15:21:24.369Z,16.10
2022-11-01T15:23:55.709Z,16.00
2022-11-01T15:26:26.491Z,16.00
2022-11-01T15:28:59.223Z,15.90
2022-11-01T15:31:26.224Z,15.80
2022-11-01T15:34:05.669Z,15.70
2022-11-01T15:36:38.198Z,15.60
2022-11-01T15:39:26.163Z,15.50
2022-11-01T15:41:56.811Z,15.40
2022-11-01T15:44:28.664Z,15.30
2022-11-01T15:47:01.065Z,15.30
2022-11-01T15:49:49.314Z,15.20
2022-11-01T15:52:20.896Z,15.20
2022-11-01T15:54:53.427Z,15.10
2022-11-01T15:57:33.862Z,15.00
2022-11-01T16:00:22.305Z,14.90
2022-11-01T16:02:52.232Z,14.80
2022-11-01T16:05:23.230Z,14.70
2022-11-01T16:07:50.057Z,14.70
2022-11-01T16:10:26.348Z,14.50
2022-11-01T16:12:54.437Z,14.50
2022-11-01T16:15:26.073Z,14.40
2022-11-01T16:17:55.814Z,14.40
2022-11-01T16:20:37.882Z,14.40
2022-11-01T16:23:10.381Z,14.30
2022-11-01T16:25:38.454Z,14.30
2022-11-01T16:28:11.230Z,14.20
2022-11-01T16:30:46.199Z,14.10
2022-11-01T16:33:22.132Z,14.00
2022-11-01T16:35:51.604Z,13.90
2022-11-01T16:38:35.806Z,13.90
2022-11-01T16:41:04.465Z,13.90
2022-11-01T16:43:32.611Z,13.80
2022-11-01T16:46:00.426Z,13.70
2022-11-01T16:48:30.310Z,13.60
2022-11-01T16:50:58.538Z,13.60
2022-11-01T16:53:27.369Z,13.40
2022-11-01T16:56:16.625Z,13.30
2022-11-01T16:58:48.473Z,13.20
2022-11-01T17:01:20.718Z,13.10
2022-11-01T17:03:48.429Z,13.00
2022-11-01T17:06:15.865Z,12.90
2022-11-01T17:08:42.593Z,12.90
2022-11-01T17:11:09.241Z,12.90
2022-11-01T17:13:36.855Z,12.90
2022-11-01T17:16:05.160Z,12.90
2022-11-01T17:18:41.122Z,12.90
2022-11-01T17:21:11.127Z,12.80
2022-11-01T17:23:37.952Z,12.70
2022-11-01T17:26:08.021Z,12.60
2022-11-01T17:28:34.796Z,12.60
2022-11-01T17:31:01.774Z,12.60
2022-11-01T17:33:28.356Z,12.60
2022-11-01T17:35:54.984Z,12.60
2022-11-01T17:38:32.101Z,12.60
2022-11-01T17:40:59.697Z,12.60
2022-11-01T17:43:26.422Z,12.60
2022-11-01T17:45:53.065Z,12.60
2022-11-01T17:48:20.673Z,12.60
2022-11-01T17:50:48.030Z,12.60
2022-11-01T17:53:17.265Z,12.70
2022-11-01T17:55:44.777Z,12.70
2022-11-01T17:58:12.231Z,12.70
2022-11-01T18:00:42.633Z,12.70
2022-11-01T18:03:10.487Z,12.70
2022-11-01T18:05:38.909Z,12.70
2022-11-01T18:08:19.296Z,12.70
2022-11-01T18:11:09.182Z,12.60
2022-11-01T18:13:41.258Z,12.50
2022-11-01T18:16:08.145Z,12.40
2022-11-01T18:18:53.741Z,12.30
2022-11-01T18:21:26.535Z,12.20
2022-11-01T18:23:55.718Z,12.10
2022-11-01T18:26:24.500Z,12.00
2022-11-01T18:28:55.089Z,11.90
2022-11-01T18:31:28.878Z,11.80
2022-11-01T18:33:58.513Z,11.70
2022-11-01T18:36:28.585Z,11.70
2022-11-01T18:39:12.427Z,11.70
2022-11-01T18:41:39.647Z,11.70
2022-11-01T18:44:11.316Z,11.70
2022-11-01T18:47:03.453Z,11.70
2022-11-01T18:49:30.841Z,11.70
2022-11-01T18:51:58.177Z,11.70
2022-11-01T18:54:29.435Z,11.70
2022-11-01T18:57:12.276Z,11.70
2022-11-01T18:59:40.246Z,11.70
2022-11-01T19:02:28.491Z,11.80
2022-11-01T19:05:17.086Z,11.70
2022-11-01T19:08:20.572Z,11.80
2022-11-01T19:10:32.875Z,11.80
2022-11-01T19:12:59.480Z,11.80
2022-11-01T19:15:28.762Z,11.90
2022-11-01T19:18:00.228Z,11.90
2022-11-01T19:20:30.175Z,11.90
2022-11-01T19:23:09.041Z,11.80
2022-11-01T19:25:36.935Z,11.80
2022-11-01T19:28:25.518Z,11.70
2022-11-01T19:30:52.797Z,11.70
2022-11-01T19:33:39.085Z,11.60
2022-11-01T19:36:14.578Z,11.60
2022-11-01T19:38:44.859Z,11.50
2022-11-01T19:41:15.634Z,11.50
2022-11-01T19:43:42.401Z,11.50
2022-11-01T19:46:14.981Z,11.40
2022-11-01T19:48:41.585Z,11.40
2022-11-01T19:51:26.608Z,11.30
2022-11-01T19:53:54.081Z,11.30
2022-11-01T19:56:26.155Z,11.20
2022-11-01T19:59:00.528Z,11.10
2022-11-01T20:01:33.514Z,11.00
2022-11-01T20:04:10.499Z,11.00
2022-11-01T20:06:48.471Z,11.00
2022-11-01T20:09:21.119Z,10.90
2022-11-01T20:11:47.886Z,10.80
2022-11-01T20:14:14.909Z,10.80
2022-11-01T20:16:42.037Z,10.70
2022-11-01T20:19:10.857Z,10.60
2022-11-01T20:21:39.916Z,10.60
2022-11-01T20:24:06.965Z,10.50
2022-11-01T20:26:33.761Z,10.50
2022-11-01T20:29:00.330Z,10.50
2022-11-01T20:31:27.215Z,10.50
2022-11-01T20:33:54.594Z,10.50
2022-11-01T20:36:22.191Z,10.50
2022-11-01T20:38:49.396Z,10.50
2022-11-01T20:41:16.305Z,10.40
2022-11-01T20:43:43.253Z,10.40
2022-11-01T20:46:10.026Z,10.50
2022-11-01T20:48:36.660Z,10.40
2022-11-01T20:51:03.601Z,10.50
2022-11-01T20:53:30.341Z,10.50
2022-11-01T20:55:56.938Z,10.40
2022-11-01T20:58:23.661Z,10.40
2022-11-01T21:00:51.505Z,10.40
2022-11-01T21:03:20.603Z,10.40
2022-11-01T21:05:49.015Z,10.30
2022-11-01T21:08:24.189Z,10.30
2022-11-01T21:11:00.832Z,10.30
2022-11-01T21:13:35.033Z,10.30
2022-11-01T21:16:03.685Z,10.20
2022-11-01T21:18:30.219Z,10.20
2022-11-01T21:20:59.054Z,10.10
2022-11-01T21:23:37.627Z,10.10
2022-11-01T21:26:18.890Z,10.10
2022-11-01T21:29:06.858Z,10.10
2022-11-01T21:31:34.635Z,10.10
2022-11-01T21:34:10.496Z,10.10
2022-11-01T21:36:41.833Z,10.00
2022-11-01T21:39:18.202Z,10.00
2022-11-01T21:41:46.304Z,9.90
2022-11-01T21:44:18.831Z,9.90
2022-11-01T21:46:48.499Z,9.90
2022-11-01T21:49:36.485Z,9.90
2022-11-01T21:52:06.283Z,9.80
2022-11-01T21:54:34.456Z,9.80
2022-11-01T21:57:02.249Z,9.80
2022-11-01T21:59:29.127Z,9.70
2022-11-01T22:01:57.047Z,9.70
2022-11-01T22:04:27.778Z,9.70
2022-11-01T22:06:56.290Z,9.70
2022-11-01T22:09:23.084Z,9.60
2022-11-01T22:11:49.713Z,9.60
2022-11-01T22:14:16.323Z,9.60
2022-11-01T22:16:42.922Z,9.50
2022-11-01T22:19:09.806Z,9.50
2022-11-01T22:21:36.612Z,9.40
2022-11-01T22:24:04.097Z,9.40
2022-11-01T22:26:30.794Z,9.50
2022-11-01T22:28:57.492Z,9.50
2022-11-01T22:31:24.232Z,9.40
2022-11-01T22:33:55.718Z,9.40
2022-11-01T22:36:30.757Z,9.40
2022-11-01T22:39:06.527Z,9.40
2022-11-01T22:41:36.197Z,9.50
2022-11-01T22:44:05.419Z,9.50
2022-11-01T22:46:46.611Z,9.40
2022-11-01T22:49:20.334Z,9.40
2022-11-01T22:51:51.313Z,9.40
2022-11-01T22:54:34.068Z,9.30
2022-11-01T22:57:09.635Z,9.30
2022-11-01T22:59:52.748Z,9.20
2022-11-01T23:02:36.517Z,9.20
2022-11-01T23:05:22.050Z,9.20
2022-11-01T23:07:51.208Z,9.20
2022-11-01T23:10:30.655Z,9.10
2022-11-01T23:13:47.261Z,9.10
2022-11-01T23:16:13.781Z,9.00
2022-11-01T23:18:42.944Z,9.00
2022-11-01T23:21:10.077Z,9.10
2022-11-01T23:23:40.577Z,9.10
2022-11-01T23:26:07.405Z,9.20
2022-11-01T23:28:35.348Z,9.30
2022-11-01T23:31:04.797Z,9.40
2022-11-01T23:33:50.512Z,9.50
2022-11-01T23:36:36.196Z,9.60
2022-11-01T23:39:13.561Z,9.60
2022-11-01T23:41:44.164Z,9.70
2022-11-01T23:44:37.114Z,9.70
2022-11-01T23:47:09.549Z,9.70
2022-11-01T23:49:36.186Z,9.70
2022-11-01T23:52:11.310Z,9.70
2022-11-01T23:54:42.140Z,9.70
2022-11-01T23:57:17.648Z,9.70
2022-11-01T23:59:44.276Z,9.70
